createdAt,value
2023-05-14T00:00:57.939Z,11.13
2023-05-14T00:03:59.802Z,14.57
2023-05-14T00:07:02.944Z,13.30
2023-05-14T00:10:05.235Z,13.77
2023-05-14T00:13:09.590Z,14.52
2023-05-14T00:16:12.481Z,14.52
2023-05-14T00:19:15.102Z,10.98
2023-05-14T00:22:22.092Z,13.20
2023-05-14T00:25:25.202Z,14.38
2023-05-14T00:28:26.998Z,12.32
2023-05-14T00:31:31.842Z,12.35
2023-05-14T00:34:36.195Z,13.55
2023-05-14T00:37:39.709Z,13.63
2023-05-14T00:40:41.660Z,13.20
2023-05-14T00:43:43.618Z,12.40
2023-05-14T00:46:47.647Z,11.40
2023-05-14T00:49:51.169Z,11.60
2023-05-14T00:52:54.548Z,11.75
2023-05-14T00:55:57.214Z,12.20
2023-05-14T00:59:01.617Z,12.88
2023-05-14T01:02:03.914Z,11.05
2023-05-14T01:05:06.756Z,11.43
2023-05-14T01:08:17.767Z,12.55
2023-05-14T01:11:26.208Z,11.98
2023-05-14T01:14:40.887Z,14.87
2023-05-14T01:17:46.306Z,12.93
2023-05-14T01:20:50.579Z,12.50
2023-05-14T01:23:54.238Z,12.02
2023-05-14T01:27:04.042Z,11.60
2023-05-14T01:30:17.838Z,11.98
2023-05-14T01:33:22.196Z,13.57
2023-05-14T01:36:24.274Z,11.93
2023-05-14T01:39:28.358Z,13.25
2023-05-14T01:42:30.821Z,11.73
2023-05-14T01:45:35.427Z,11.80
2023-05-14T01:48:37.613Z,11.77
2023-05-14T01:51:41.865Z,11.82
2023-05-14T01:54:47.525Z,12.20
2023-05-14T01:57:49.502Z,12.02
2023-05-14T02:00:51.201Z,13.70
2023-05-14T02:03:53.392Z,12.75
2023-05-14T02:06:55.462Z,13.45
2023-05-14T02:10:01.095Z,14.65
2023-05-14T02:13:03.897Z,11.70
2023-05-14T02:16:07.139Z,14.05
2023-05-14T02:19:08.895Z,13.15
2023-05-14T02:22:13.414Z,14.00
2023-05-14T02:25:18.209Z,13.13
2023-05-14T02:28:21.273Z,14.93
2023-05-14T02:31:23.219Z,17.52
2023-05-14T02:34:28.247Z,13.15
2023-05-14T02:37:32.615Z,13.65
2023-05-14T02:40:37.105Z,14.32
2023-05-14T02:43:39.066Z,12.95
2023-05-14T02:46:41.001Z,16.05
2023-05-14T02:49:42.963Z,13.48
2023-05-14T02:52:46.987Z,13.98
2023-05-14T02:55:50.621Z,14.45
2023-05-14T02:58:52.656Z,14.23
2023-05-14T03:01:54.982Z,15.45
2023-05-14T03:04:57.446Z,15.10
2023-05-14T03:07:59.425Z,15.05
2023-05-14T03:11:02.736Z,16.55
2023-05-14T03:14:04.471Z,13.90
2023-05-14T03:17:09.307Z,15.60
2023-05-14T03:20:13.490Z,16.73
2023-05-14T03:23:15.500Z,15.35
2023-05-14T03:26:20.174Z,16.73
2023-05-14T03:29:22.798Z,13.65
2023-05-14T03:32:27.788Z,17.17
2023-05-14T03:35:29.487Z,16.05
2023-05-14T03:38:31.521Z,15.48
2023-05-14T03:41:35.131Z,14.60
2023-05-14T03:44:39.492Z,13.95
2023-05-14T03:47:41.293Z,14.27
2023-05-14T03:50:45.679Z,13.68
2023-05-14T03:53:49.345Z,13.82
2023-05-14T03:56:56.158Z,13.73
2023-05-14T04:00:00.780Z,16.23
2023-05-14T04:03:02.662Z,13.60
2023-05-14T04:06:07.166Z,14.57
2023-05-14T04:09:09.141Z,13.40
2023-05-14T04:12:12.952Z,13.60
2023-05-14T04:15:14.832Z,13.90
2023-05-14T04:18:19.198Z,13.07
2023-05-14T04:21:20.972Z,11.75
2023-05-14T04:24:22.684Z,15.10
2023-05-14T04:27:29.466Z,12.82
2023-05-14T04:30:31.225Z,12.32
2023-05-14T04:33:33.328Z,14.88
2023-05-14T04:36:35.158Z,11.57
2023-05-14T04:39:37.036Z,12.77
2023-05-14T04:42:40.598Z,12.20
2023-05-14T04:45:44.684Z,13.68
2023-05-14T04:48:47.604Z,12.25
2023-05-14T04:51:49.547Z,12.70
2023-05-14T04:54:51.326Z,12.70
2023-05-14T04:57:54.903Z,15.50
2023-05-14T05:00:56.751Z,15.15
2023-05-14T05:03:59.004Z,12.50
2023-05-14T05:07:01.080Z,10.88
2023-05-14T05:10:06.621Z,13.10
2023-05-14T05:13:12.512Z,11.90
2023-05-14T05:16:14.423Z,12.30
2023-05-14T05:19:17.099Z,10.68
2023-05-14T05:22:21.958Z,13.77
2023-05-14T05:25:27.379Z,10.18
2023-05-14T05:28:31.161Z,10.40
2023-05-14T05:31:33.364Z,11.73
2023-05-14T05:34:35.834Z,9.98
2023-05-14T05:37:37.864Z,10.43
2023-05-14T05:40:41.981Z,10.63
2023-05-14T05:43:45.404Z,11.50
2023-05-14T05:46:47.215Z,10.63
2023-05-14T05:49:49.258Z,9.80
2023-05-14T05:52:51.421Z,11.25
2023-05-14T05:55:53.161Z,12.13
2023-05-14T05:58:58.606Z,11.07
2023-05-14T06:02:00.630Z,12.73
2023-05-14T06:05:02.879Z,9.25
2023-05-14T06:08:05.267Z,10.60
2023-05-14T06:11:07.028Z,10.93
2023-05-14T06:14:12.263Z,9.93
2023-05-14T06:17:17.994Z,9.93
2023-05-14T06:20:23.108Z,8.98
2023-05-14T06:23:25.860Z,10.93
2023-05-14T06:26:28.992Z,9.32
2023-05-14T06:29:34.895Z,9.38
2023-05-14T06:32:37.162Z,10.48
2023-05-14T06:35:43.854Z,9.23
2023-05-14T06:38:45.758Z,12.63
2023-05-14T06:41:47.500Z,9.55
2023-05-14T06:44:50.568Z,10.50
2023-05-14T06:47:52.839Z,16.75
2023-05-14T06:50:55.057Z,11.32
2023-05-14T06:53:56.734Z,9.57
2023-05-14T06:57:01.279Z,11.88
2023-05-14T07:00:05.455Z,11.40
2023-05-14T07:03:09.731Z,9.68
2023-05-14T07:06:13.541Z,8.95
2023-05-14T07:09:16.251Z,8.60
2023-05-14T07:12:17.984Z,10.82
2023-05-14T07:15:26.554Z,11.48
2023-05-14T07:18:30.920Z,9.80
2023-05-14T07:21:34.479Z,9.00
2023-05-14T07:24:36.449Z,9.90
2023-05-14T07:27:38.762Z,11.75
2023-05-14T07:30:42.166Z,8.77
2023-05-14T07:33:44.172Z,11.07
2023-05-14T07:36:46.311Z,8.27
2023-05-14T07:39:48.555Z,10.13
2023-05-14T07:42:51.366Z,8.07
2023-05-14T07:45:56.348Z,11.98
2023-05-14T07:48:58.310Z,9.90
2023-05-14T07:52:00.245Z,11.98
2023-05-14T07:55:03.424Z,13.45
2023-05-14T07:58:05.326Z,8.65
2023-05-14T08:01:08.435Z,8.43
2023-05-14T08:04:12.275Z,8.52
2023-05-14T08:07:18.344Z,8.70
2023-05-14T08:10:20.373Z,8.38
2023-05-14T08:13:24.429Z,8.93
2023-05-14T08:16:28.123Z,12.07
2023-05-14T08:19:32.781Z,9.70
2023-05-14T08:22:35.113Z,9.38
2023-05-14T08:25:37.222Z,10.10
2023-05-14T08:28:38.876Z,9.70
2023-05-14T08:31:42.877Z,8.48
2023-05-14T08:34:45.366Z,8.52
2023-05-14T08:37:47.329Z,10.10
2023-05-14T08:40:49.815Z,8.27
2023-05-14T08:44:04.138Z,10.18
2023-05-14T08:47:12.012Z,8.80
2023-05-14T08:50:16.636Z,9.70
2023-05-14T08:53:18.589Z,11.18
2023-05-14T08:56:22.740Z,10.77
2023-05-14T08:59:24.783Z,9.20
2023-05-14T09:02:30.682Z,9.15
2023-05-14T09:05:33.045Z,10.40
2023-05-14T09:08:34.974Z,9.70
2023-05-14T09:11:41.563Z,12.05
2023-05-14T09:14:44.751Z,12.15
2023-05-14T09:17:50.332Z,9.27
2023-05-14T09:20:52.576Z,10.95
2023-05-14T09:23:57.381Z,9.98
2023-05-14T09:26:59.239Z,10.48
2023-05-14T09:30:08.848Z,10.05
2023-05-14T09:33:11.933Z,11.85
2023-05-14T09:36:13.888Z,12.00
2023-05-14T09:39:15.553Z,12.02
2023-05-14T09:42:17.276Z,11.15
2023-05-14T09:45:19.062Z,13.00
2023-05-14T09:48:22.504Z,10.75
2023-05-14T09:51:24.541Z,15.68
2023-05-14T09:54:27.552Z,14.93
2023-05-14T09:57:29.446Z,16.20
2023-05-14T10:00:32.608Z,12.93
2023-05-14T10:03:36.851Z,12.48
2023-05-14T10:06:39.561Z,13.13
2023-05-14T10:09:44.090Z,12.48
2023-05-14T10:12:53.028Z,13.02
2023-05-14T10:16:03.822Z,14.25
2023-05-14T10:19:09.665Z,13.38
2023-05-14T10:22:15.277Z,13.80
2023-05-14T10:25:18.248Z,15.80
2023-05-14T10:28:21.076Z,13.68
2023-05-14T10:31:24.336Z,13.15
2023-05-14T10:34:35.965Z,12.52
2023-05-14T10:37:40.425Z,12.77
2023-05-14T10:40:42.399Z,14.50
2023-05-14T10:43:44.528Z,15.07
2023-05-14T10:46:46.544Z,14.75
2023-05-14T10:49:52.962Z,14.00
2023-05-14T10:52:54.767Z,13.85
2023-05-14T10:55:58.863Z,16.45
2023-05-14T10:59:01.042Z,17.98
2023-05-14T11:02:19.367Z,16.88
2023-05-14T11:05:23.038Z,14.73
2023-05-14T11:08:28.078Z,13.73
2023-05-14T11:11:31.494Z,12.40
2023-05-14T11:14:34.475Z,13.27
2023-05-14T11:17:40.202Z,13.10
2023-05-14T11:20:44.586Z,13.38
2023-05-14T11:23:47.044Z,11.70
2023-05-14T11:26:49.097Z,12.38
2023-05-14T11:29:51.749Z,14.00
2023-05-14T11:32:55.686Z,10.93
2023-05-14T11:35:59.545Z,12.38
2023-05-14T11:39:08.022Z,11.77
2023-05-14T11:42:11.720Z,14.47
2023-05-14T11:45:23.954Z,11.80
2023-05-14T11:48:25.971Z,11.32
2023-05-14T11:51:29.290Z,12.30
2023-05-14T11:54:32.546Z,12.00
2023-05-14T11:57:35.356Z,12.43
2023-05-14T12:00:37.929Z,11.05
2023-05-14T12:03:40.151Z,11.63
2023-05-14T12:06:43.380Z,8.85
2023-05-14T12:09:46.733Z,9.85
2023-05-14T12:12:48.938Z,9.07
2023-05-14T12:15:55.508Z,8.02
2023-05-14T12:19:00.828Z,7.90
2023-05-14T12:22:04.503Z,8.65
2023-05-14T12:25:12.104Z,11.38
2023-05-14T12:28:15.774Z,8.05
2023-05-14T12:31:17.701Z,6.97
2023-05-14T12:34:21.135Z,10.05
2023-05-14T12:37:24.744Z,6.93
2023-05-14T12:40:26.696Z,8.18
2023-05-14T12:43:28.690Z,7.63
2023-05-14T12:46:31.071Z,7.20
2023-05-14T12:49:32.869Z,6.78
2023-05-14T12:52:39.901Z,5.65
2023-05-14T12:55:45.485Z,6.25
2023-05-14T12:58:48.374Z,5.15
2023-05-14T13:01:50.517Z,4.03
2023-05-14T13:04:52.472Z,4.10
2023-05-14T13:08:00.501Z,3.80
2023-05-14T13:11:02.536Z,3.92
2023-05-14T13:14:04.322Z,3.42
2023-05-14T13:17:06.377Z,3.05
2023-05-14T13:20:11.728Z,4.43
2023-05-14T13:23:15.617Z,3.40
2023-05-14T13:26:20.039Z,2.80
2023-05-14T13:29:21.948Z,2.72
2023-05-14T13:32:24.486Z,2.85
2023-05-14T13:35:26.582Z,2.90
2023-05-14T13:38:29.912Z,3.25
2023-05-14T13:41:31.828Z,4.15
2023-05-14T13:44:33.568Z,3.58
2023-05-14T13:47:35.402Z,3.15
2023-05-14T13:50:37.260Z,2.00
2023-05-14T13:53:40.546Z,2.67
2023-05-14T13:56:42.545Z,6.80
2023-05-14T13:59:46.337Z,2.92
2023-05-14T14:02:48.670Z,2.88
2023-05-14T14:05:50.746Z,2.10
2023-05-14T14:08:54.561Z,2.35
2023-05-14T14:11:56.346Z,2.75
2023-05-14T14:14:59.188Z,3.42
2023-05-14T14:18:01.369Z,1.98
2023-05-14T14:21:03.226Z,2.13
2023-05-14T14:24:07.033Z,1.77
2023-05-14T14:27:08.975Z,1.67
2023-05-14T14:30:12.010Z,2.00
2023-05-14T14:33:14.085Z,3.28
2023-05-14T14:36:15.942Z,2.33
2023-05-14T14:39:19.122Z,1.23
2023-05-14T14:42:21.065Z,2.33
2023-05-14T14:45:24.353Z,2.45
2023-05-14T14:48:29.175Z,1.58
2023-05-14T14:51:31.475Z,2.35
2023-05-14T14:54:35.035Z,1.42
2023-05-14T14:57:37.295Z,1.23
2023-05-14T15:00:39.491Z,1.30
2023-05-14T15:03:42.761Z,1.80
2023-05-14T15:06:45.006Z,2.35
2023-05-14T15:09:48.634Z,1.30
2023-05-14T15:12:50.741Z,1.60
2023-05-14T15:15:54.191Z,1.38
2023-05-14T15:18:56.910Z,1.40
2023-05-14T15:21:59.572Z,1.60
2023-05-14T15:25:04.113Z,1.40
2023-05-14T15:28:07.266Z,2.85
2023-05-14T15:31:09.905Z,1.20
2023-05-14T15:34:12.663Z,1.20
2023-05-14T15:37:15.211Z,1.30
2023-05-14T15:40:19.593Z,1.20
2023-05-14T15:43:22.466Z,2.28
2023-05-14T15:46:24.911Z,1.73
2023-05-14T15:49:27.300Z,1.60
2023-05-14T15:52:30.259Z,1.27
2023-05-14T15:55:34.010Z,1.05
2023-05-14T15:58:36.374Z,1.33
2023-05-14T16:01:39.435Z,1.42
2023-05-14T16:04:41.850Z,1.20
2023-05-14T16:07:45.108Z,1.45
2023-05-14T16:10:49.099Z,2.35
2023-05-14T16:13:51.771Z,1.10
2023-05-14T16:16:54.963Z,1.15
2023-05-14T16:19:57.548Z,2.20
2023-05-14T16:23:00.030Z,1.75
2023-05-14T16:26:03.769Z,2.17
2023-05-14T16:29:06.636Z,1.33
2023-05-14T16:32:09.204Z,1.00
2023-05-14T16:35:11.682Z,0.90
2023-05-14T16:38:15.254Z,2.83
2023-05-14T16:41:19.243Z,0.70
2023-05-14T16:44:22.860Z,1.48
2023-05-14T16:47:25.937Z,3.10
2023-05-14T16:50:28.355Z,1.13
2023-05-14T16:53:30.890Z,0.88
2023-05-14T16:56:34.741Z,0.85
2023-05-14T16:59:38.144Z,1.38
2023-05-14T17:02:40.655Z,1.00
2023-05-14T17:05:43.278Z,0.80
2023-05-14T17:08:45.992Z,0.77
2023-05-14T17:11:49.808Z,0.80
2023-05-14T17:14:52.249Z,1.27
2023-05-14T17:17:55.949Z,1.25
2023-05-14T17:20:58.761Z,1.00
2023-05-14T17:24:02.035Z,1.30
2023-05-14T17:27:06.681Z,1.25
2023-05-14T17:30:10.157Z,1.60
2023-05-14T17:33:12.696Z,1.60
2023-05-14T17:36:15.476Z,4.68
2023-05-14T17:39:19.233Z,2.30
2023-05-14T17:42:23.005Z,2.65
2023-05-14T17:45:25.881Z,4.82
2023-05-14T17:48:29.015Z,2.10
2023-05-14T17:51:31.755Z,3.85
2023-05-14T17:54:34.572Z,2.50
2023-05-14T17:57:40.034Z,2.90
2023-05-14T18:00:42.814Z,3.45
2023-05-14T18:03:50.128Z,3.33
2023-05-14T18:06:53.165Z,2.63
2023-05-14T18:09:56.412Z,3.65
2023-05-14T18:13:00.533Z,3.83
2023-05-14T18:16:03.062Z,3.58
2023-05-14T18:19:08.243Z,5.88
2023-05-14T18:22:12.554Z,3.72
2023-05-14T18:25:15.576Z,3.00
2023-05-14T18:28:23.476Z,4.10
2023-05-14T18:31:26.121Z,4.05
2023-05-14T18:34:29.039Z,4.78
2023-05-14T18:37:31.665Z,4.50
2023-05-14T18:40:35.353Z,4.80
2023-05-14T18:43:45.017Z,5.95
2023-05-14T18:46:47.616Z,4.45
2023-05-14T18:49:51.256Z,4.43
2023-05-14T18:52:56.681Z,5.00
2023-05-14T18:56:03.941Z,4.22
2023-05-14T18:59:17.158Z,4.38
2023-05-14T19:02:20.211Z,6.28
2023-05-14T19:05:23.407Z,4.45
2023-05-14T19:08:26.234Z,7.38
2023-05-14T19:11:31.697Z,5.05
2023-05-14T19:14:35.797Z,4.93
2023-05-14T19:17:38.586Z,4.70
2023-05-14T19:20:42.194Z,3.85
2023-05-14T19:23:45.026Z,5.88
2023-05-14T19:26:48.065Z,4.35
2023-05-14T19:29:52.209Z,5.13
2023-05-14T19:32:54.887Z,4.88
2023-05-14T19:35:58.500Z,5.75
2023-05-14T19:39:01.107Z,4.30
2023-05-14T19:42:03.932Z,5.20
2023-05-14T19:45:09.027Z,4.35
2023-05-14T19:48:12.888Z,4.35
2023-05-14T19:51:16.078Z,4.15
2023-05-14T19:54:18.797Z,4.70
2023-05-14T19:57:21.603Z,4.65
2023-05-14T20:00:27.995Z,5.85
2023-05-14T20:03:31.135Z,3.55
2023-05-14T20:06:34.278Z,3.95
2023-05-14T20:09:37.310Z,3.33
2023-05-14T20:12:39.745Z,3.30
2023-05-14T20:15:44.903Z,4.30
2023-05-14T20:18:48.682Z,3.50
2023-05-14T20:21:51.152Z,3.53
2023-05-14T20:24:53.639Z,4.43
2023-05-14T20:27:56.036Z,3.22
2023-05-14T20:31:01.259Z,3.28
2023-05-14T20:34:03.812Z,2.65
2023-05-14T20:37:06.503Z,3.92
2023-05-14T20:40:10.914Z,3.35
2023-05-14T20:43:13.302Z,3.22
2023-05-14T20:46:17.437Z,9.02
2023-05-14T20:49:19.695Z,2.90
2023-05-14T20:52:21.902Z,2.40
2023-05-14T20:55:24.320Z,4.15
2023-05-14T20:58:26.590Z,2.40
2023-05-14T21:01:30.721Z,2.05
2023-05-14T21:04:33.230Z,3.15
2023-05-14T21:07:37.810Z,3.30
2023-05-14T21:10:39.730Z,3.17
2023-05-14T21:13:43.835Z,3.60
2023-05-14T21:16:47.389Z,3.53
2023-05-14T21:19:49.191Z,2.17
2023-05-14T21:22:51.198Z,2.30
2023-05-14T21:25:52.929Z,2.78
2023-05-14T21:28:54.843Z,2.35
2023-05-14T21:31:58.456Z,3.28
2023-05-14T21:35:00.416Z,4.15
2023-05-14T21:38:02.272Z,3.47
2023-05-14T21:41:04.083Z,2.80
2023-05-14T21:44:05.823Z,4.10
2023-05-14T21:47:09.656Z,3.05
2023-05-14T21:50:11.349Z,3.50
2023-05-14T21:53:13.186Z,5.03
2023-05-14T21:56:15.204Z,2.75
2023-05-14T21:59:17.205Z,3.05
2023-05-14T22:02:20.846Z,3.17
2023-05-14T22:05:23.134Z,2.58
2023-05-14T22:08:27.711Z,3.83
2023-05-14T22:11:29.438Z,2.30
2023-05-14T22:14:31.180Z,2.63
2023-05-14T22:17:35.805Z,2.63
2023-05-14T22:20:37.766Z,2.20
2023-05-14T22:23:39.736Z,3.33
2023-05-14T22:26:41.456Z,2.25
2023-05-14T22:29:43.470Z,2.85
2023-05-14T22:32:46.781Z,2.22
2023-05-14T22:35:48.621Z,2.50
2023-05-14T22:38:50.388Z,2.20
2023-05-14T22:41:52.669Z,3.58
2023-05-14T22:44:54.597Z,2.53
2023-05-14T22:48:01.056Z,5.65
2023-05-14T22:51:05.240Z,2.38
2023-05-14T22:54:07.282Z,3.97
2023-05-14T22:57:09.015Z,2.45
2023-05-14T23:00:12.229Z,3.08
2023-05-14T23:03:15.845Z,2.90
2023-05-14T23:06:17.784Z,3.92
2023-05-14T23:09:19.740Z,2.20
2023-05-14T23:12:21.426Z,4.78
2023-05-14T23:15:23.630Z,2.55
2023-05-14T23:18:27.856Z,2.10
2023-05-14T23:21:30.055Z,2.90
2023-05-14T23:24:31.777Z,2.20
2023-05-14T23:27:34.461Z,2.58
2023-05-14T23:30:36.657Z,2.35
2023-05-14T23:33:39.988Z,2.28
2023-05-14T23:36:41.783Z,3.92
2023-05-14T23:39:45.689Z,2.47
2023-05-14T23:42:47.628Z,2.30
2023-05-14T23:45:51.894Z,3.45
2023-05-14T23:48:55.056Z,2.95
2023-05-14T23:51:57.027Z,2.80
2023-05-14T23:54:59.073Z,4.38
2023-05-14T23:58:02.123Z,3.47
